Time;durP1;ratioP1;P1;durP2;ratioP2;P2;SDS_P1;SDS_P2;PMS_P1;PMS_P2;Temp;Humidity;BMP_temperature;BMP_pressure;BME280_temperature;BME280_humidity;BME280_pressure;Samples;Min_cycle;Max_cycle;Signal;HPM_P1;HPM_P2
2023/03/02 00:02:00;;;;;;;13.80;7.43;;;0.80;99.90;;;-144.05;52.53;57018.75;5034709;28;20136;-76
2023/03/02 00:04:30;;;;;;;13.20;7.22;;;0.80;99.90;;;-144.05;52.05;57001.75;5035085;28;20037;-77
2023/03/02 00:07:02;;;;;;;18.23;7.55;;;0.80;99.90;;;-144.05;51.71;57044.25;5035011;28;20033;-76
2023/03/02 00:09:29;;;;;;;11.00;6.72;;;0.70;99.90;;;-144.05;52.09;57012.38;5034288;28;20032;-75
2023/03/02 00:11:56;;;;;;;16.08;8.05;;;0.60;99.90;;;-144.05;52.60;57018.75;5034732;28;20076;-75
2023/03/02 00:14:22;;;;;;;11.90;6.65;;;0.60;99.90;;;-144.05;52.47;57035.75;5034544;28;20021;-78
2023/03/02 00:16:48;;;;;;;13.77;7.85;;;0.60;99.90;;;-144.05;52.50;57025.13;5034479;28;20095;-77
2023/03/02 00:19:13;;;;;;;14.52;7.40;;;0.50;99.90;;;-144.05;52.72;56993.25;5032720;28;20053;-77
2023/03/02 00:21:40;;;;;;;13.15;7.75;;;0.50;99.90;;;-144.05;52.53;56976.28;5034418;28;20155;-77
2023/03/02 00:24:06;;;;;;;14.23;7.00;;;0.50;99.90;;;-144.05;52.75;57001.75;5034504;28;20052;-77
2023/03/02 00:26:36;;;;;;;14.38;6.78;;;0.40;99.90;;;-144.05;52.55;57018.75;5034582;28;20029;-77
2023/03/02 00:29:03;;;;;;;16.00;7.03;;;0.40;99.90;;;-144.05;52.66;56995.38;5034197;28;20033;-77
2023/03/02 00:31:29;;;;;;;14.23;7.00;;;0.50;99.90;;;-144.05;52.51;57001.75;5032616;28;20061;-77
2023/03/02 00:33:55;;;;;;;12.18;6.65;;;0.50;99.90;;;-144.05;52.33;57027.25;5033942;28;20508;-77
2023/03/02 00:36:22;;;;;;;13.23;6.53;;;0.40;99.90;;;-144.05;52.70;57003.88;5032732;28;20045;-77
2023/03/02 00:38:51;;;;;;;12.55;7.10;;;0.30;99.90;;;-144.05;52.86;57023.00;5033292;28;20455;-77
2023/03/02 00:41:20;;;;;;;14.65;7.50;;;0.20;99.90;;;-144.05;52.80;57016.63;5033224;28;20025;-76
2023/03/02 00:43:48;;;;;;;13.68;6.93;;;0.20;99.90;;;-144.05;53.08;57006.00;5033458;28;20025;-77
2023/03/02 00:46:22;;;;;;;11.20;6.35;;;0.10;99.90;;;-144.05;53.13;57018.75;5033296;28;20453;-76
2023/03/02 00:48:48;;;;;;;14.32;6.78;;;0.00;99.90;;;-144.05;53.48;56997.50;5033282;28;20037;-77
2023/03/02 00:51:16;;;;;;;11.63;7.10;;;-0.10;99.90;;;-144.05;54.00;56995.38;5033292;28;20040;-77
2023/03/02 00:53:43;;;;;;;17.33;6.80;;;-0.20;99.90;;;-144.05;54.08;57012.38;5032871;28;20043;-76
2023/03/02 00:56:10;;;;;;;12.13;6.80;;;-0.40;99.90;;;-144.05;54.54;57023.00;5032975;28;20029;-77
2023/03/02 00:58:37;;;;;;;14.02;7.25;;;-0.40;99.90;;;-144.05;55.06;57025.13;5048165;28;20029;-74
2023/03/02 01:01:12;;;;;;;15.20;7.25;;;-0.50;99.90;;;-144.05;55.53;57012.38;5032072;28;20025;-76
2023/03/02 01:03:38;;;;;;;13.07;7.43;;;-0.50;99.90;;;-144.05;55.78;57027.25;5033798;28;20033;-77
2023/03/02 01:06:13;;;;;;;17.92;8.35;;;-0.50;99.90;;;-144.05;56.14;57014.50;5033509;28;20087;-77
2023/03/02 01:08:39;;;;;;;14.70;7.47;;;-0.60;99.90;;;-144.05;56.12;57054.88;5031883;28;20032;-76
2023/03/02 01:11:21;;;;;;;13.95;7.55;;;-0.60;99.90;;;-144.05;56.24;57035.75;5032201;28;20029;-78
2023/03/02 01:13:49;;;;;;;17.33;7.70;;;-0.60;99.90;;;-144.05;56.42;57044.25;5048898;28;20022;-77
2023/03/02 01:16:15;;;;;;;19.65;7.90;;;-0.60;99.90;;;-144.05;56.60;57063.34;5048448;28;20036;-77
2023/03/02 01:18:41;;;;;;;13.48;7.72;;;-0.60;99.90;;;-144.05;56.50;57031.50;5032820;28;20045;-77
2023/03/02 01:21:14;;;;;;;13.57;7.85;;;-0.70;99.90;;;-144.05;56.90;57040.00;5032993;28;20087;-78
2023/03/02 01:23:41;;;;;;;14.05;7.53;;;-0.70;99.90;;;-144.05;56.75;57046.38;5033166;28;20504;-78
2023/03/02 01:26:07;;;;;;;19.17;9.02;;;-0.80;99.90;;;-144.05;57.08;57035.75;5032865;28;20214;-77
2023/03/02 01:28:33;;;;;;;18.15;9.05;;;-0.80;99.90;;;-144.05;57.18;57035.75;5032538;28;20465;-77
2023/03/02 01:31:01;;;;;;;19.98;10.52;;;-0.80;99.90;;;-144.05;57.56;57044.25;5032998;28;20484;-78
2023/03/02 01:33:27;;;;;;;19.38;10.50;;;-0.80;99.90;;;-144.05;57.30;57052.75;5033100;28;20026;-77
2023/03/02 01:35:53;;;;;;;18.05;10.35;;;-0.80;99.90;;;-144.05;57.42;57056.97;5032580;28;20052;-77
2023/03/02 01:38:19;;;;;;;20.58;11.00;;;-0.90;99.90;;;-144.05;57.70;57020.88;5032543;28;20033;-77
2023/03/02 01:40:44;;;;;;;20.42;10.45;;;-0.90;99.90;;;-144.05;58.05;57035.75;5031294;28;20422;-77
2023/03/02 01:43:15;;;;;;;18.58;10.27;;;-1.00;99.90;;;-144.05;58.49;57048.50;5032837;28;20029;-77
2023/03/02 01:46:02;;;;;;;18.38;9.15;;;-1.00;99.90;;;-144.05;58.73;57023.00;5032473;28;20088;-77
2023/03/02 01:48:47;;;;;;;20.02;9.75;;;-1.00;99.90;;;-144.05;58.15;57054.88;5032372;28;20453;-77
2023/03/02 01:51:21;;;;;;;19.98;10.23;;;-0.90;99.90;;;-144.05;57.98;57016.63;5032003;28;20397;-75
2023/03/02 01:53:53;;;;;;;18.40;9.57;;;-0.80;99.90;;;-144.05;57.63;57048.50;5032395;28;20103;-78
2023/03/02 01:56:29;;;;;;;18.63;9.60;;;-0.80;99.90;;;-144.05;57.76;57048.50;5031045;28;20071;-77
2023/03/02 01:59:02;;;;;;;;;;;-0.80;99.90;;;-144.05;57.56;57048.50;5032261;28;20021;-77
2023/03/02 02:01:35;;;;;;;16.55;8.95;;;-0.70;99.90;;;-144.05;56.79;57027.25;5031866;28;19920;-77
2023/03/02 02:04:01;;;;;;;16.83;8.00;;;-0.60;99.90;;;-144.05;56.62;57018.75;5031979;28;20531;-77
2023/03/02 02:06:38;;;;;;;13.88;8.02;;;-0.60;99.90;;;-144.05;56.49;57031.50;5031977;28;20032;-78
2023/03/02 02:09:12;;;;;;;18.00;8.88;;;-0.50;99.90;;;-144.05;56.38;57020.88;5046631;28;20025;-75
2023/03/02 02:11:38;;;;;;;19.13;8.95;;;-0.50;99.90;;;-144.05;56.36;57040.00;5031274;28;20029;-77
2023/03/02 02:14:05;;;;;;;14.75;7.57;;;-0.50;99.90;;;-144.05;56.12;57027.25;5031681;28;20025;-77
2023/03/02 02:16:35;;;;;;;15.82;8.27;;;-0.60;99.90;;;-144.05;56.17;57025.13;5031833;28;20033;-76
2023/03/02 02:19:33;;;;;;;17.90;8.13;;;-0.70;99.90;;;-144.05;56.38;57052.75;5031285;28;20029;-78
2023/03/02 02:21:59;;;;;;;17.77;8.90;;;-0.60;99.90;;;-144.05;56.24;57018.75;5031654;28;20104;-78
2023/03/02 02:24:40;;;;;;;18.50;9.68;;;-0.60;99.90;;;-144.05;56.13;57027.25;5030351;28;20552;-78
2023/03/02 02:27:07;;;;;;;17.52;8.30;;;-0.60;99.90;;;-144.05;56.03;57025.13;5030174;28;20030;-75
2023/03/02 02:29:44;;;;;;;17.02;8.20;;;-0.50;99.90;;;-144.05;55.96;57023.00;5029914;28;20033;-78
2023/03/02 02:32:29;;;;;;;18.98;8.10;;;-0.50;99.90;;;-144.05;55.84;57023.00;5031687;28;20032;-77
2023/03/02 02:35:21;;;;;;;16.88;7.78;;;-0.50;99.90;;;-144.05;55.79;57025.13;5046310;28;20485;-77
2023/03/02 02:37:55;;;;;;;23.10;9.10;;;-0.50;99.90;;;-144.05;55.79;57029.38;5031278;28;20030;-75
2023/03/02 02:40:40;;;;;;;13.63;7.65;;;-0.50;99.90;;;-144.05;55.70;57025.13;5030154;28;20148;-77
2023/03/02 02:43:12;;;;;;;12.98;7.25;;;-0.50;99.90;;;-144.05;55.72;57063.34;5031709;28;20040;-77
2023/03/02 02:45:39;;;;;;;11.73;6.28;;;-0.60;99.90;;;-144.05;55.58;56995.38;5047067;28;20074;-77
2023/03/02 02:48:14;;;;;;;14.55;7.35;;;-0.40;99.90;;;-144.05;55.54;57025.13;5046628;28;20037;-77
2023/03/02 02:50:40;;;;;;;14.93;7.23;;;-0.40;99.90;;;-144.05;55.13;57033.63;5046248;28;20029;-77
2023/03/02 02:53:21;;;;;;;17.80;7.20;;;-0.40;99.90;;;-144.05;54.92;57040.00;5031105;28;20287;-77
2023/03/02 02:55:56;;;;;;;14.60;6.90;;;-0.40;99.90;;;-144.05;55.23;57018.75;5031627;28;20025;-78
2023/03/02 02:58:52;;;;;;;12.98;6.65;;;-0.50;99.90;;;-144.05;55.05;57042.13;5031444;28;20026;-77
2023/03/02 03:01:24;;;;;;;14.80;7.07;;;-0.40;99.90;;;-144.05;55.04;57040.00;5031571;28;20034;-78
2023/03/02 03:04:01;;;;;;;18.02;7.18;;;-0.50;99.90;;;-144.05;54.95;57020.88;5031654;28;20034;-77
2023/03/02 03:06:37;;;;;;;12.43;6.35;;;-0.50;99.90;;;-144.05;55.09;57031.50;5031319;28;20144;-78
2023/03/02 03:09:06;;;;;;;10.93;5.97;;;-0.60;99.90;;;-144.05;55.37;57029.38;5031772;28;20462;-77
2023/03/02 03:11:39;;;;;;;12.93;6.38;;;-0.70;99.90;;;-144.05;56.02;57001.75;5031414;28;20040;-77
2023/03/02 03:14:12;;;;;;;15.38;7.20;;;-0.70;99.90;;;-144.05;56.13;56989.00;5046713;28;20025;-76
2023/03/02 03:16:42;;;;;;;14.35;6.57;;;-0.70;99.90;;;-144.05;56.21;57018.75;5031673;28;20033;-76
2023/03/02 03:19:32;;;;;;;10.38;5.85;;;-0.70;99.90;;;-144.05;55.99;57012.38;5029552;28;20096;-77
2023/03/02 03:22:01;;;;;;;15.60;8.13;;;-0.60;99.90;;;-144.05;55.46;57001.75;5057075;23;20203;-85
2023/03/02 03:24:32;;;;;;;11.30;6.82;;;-0.60;99.90;;;-144.05;55.52;57046.38;5067003;28;20523;-84
2023/03/02 03:27:00;;;;;;;14.27;6.95;;;-0.80;99.90;;;-144.05;55.80;57033.63;5050261;28;20025;-86
2023/03/02 03:29:29;;;;;;;12.68;6.90;;;-0.90;99.90;;;-144.05;56.05;57033.63;5050311;28;20025;-85
2023/03/02 03:31:58;;;;;;;11.95;6.55;;;-0.90;99.90;;;-144.05;56.76;57052.75;5059985;28;20025;-84
2023/03/02 03:34:26;;;;;;;14.55;6.60;;;-1.00;99.90;;;-144.05;56.86;57014.50;5070453;28;20402;-84
2023/03/02 03:36:53;;;;;;;12.77;6.63;;;-1.10;99.90;;;-144.05;57.07;57031.50;5056470;28;20029;-86
2023/03/02 03:39:20;;;;;;;15.30;7.13;;;-1.20;99.90;;;-144.05;57.44;57059.09;5055087;28;20040;-87
2023/03/02 03:41:46;;;;;;;13.40;6.95;;;-1.30;99.90;;;-144.05;57.62;57076.09;5053732;28;20120;-83
2023/03/02 03:44:12;;;;;;;11.95;6.78;;;-1.40;99.90;;;-144.05;57.99;57033.63;5053554;28;20551;-85
2023/03/02 03:46:38;;;;;;;17.00;7.50;;;-1.40;99.90;;;-144.05;57.99;57031.50;5053445;28;20032;-86
2023/03/02 03:49:04;;;;;;;16.33;7.07;;;-1.30;99.90;;;-144.05;58.41;57044.25;5053294;28;20473;-86
2023/03/02 03:51:34;;;;;;;15.77;7.03;;;-1.30;99.90;;;-144.05;58.09;57023.00;5052940;28;20151;-84
2023/03/02 03:54:07;;;;;;;14.80;7.38;;;-1.30;99.90;;;-144.05;58.17;57020.88;5053220;28;20029;-84
2023/03/02 03:56:43;;;;;;;14.48;7.50;;;-1.40;99.90;;;-144.05;58.00;57044.25;5053243;28;20075;-85
2023/03/02 03:59:16;;;;;;;15.75;7.90;;;-1.30;99.90;;;-144.05;58.19;57035.75;5054119;28;20349;-89
2023/03/02 04:01:55;;;;;;;13.57;7.60;;;-1.40;99.90;;;-144.05;58.40;57042.13;5071135;28;20032;-86
2023/03/02 04:04:31;;;;;;;12.85;7.57;;;-1.40;99.90;;;-144.05;58.53;57044.25;5069889;28;20029;-89
2023/03/02 04:06:58;;;;;;;14.80;7.35;;;-1.50;99.90;;;-144.05;58.70;57044.25;5068771;28;20040;-87
2023/03/02 04:09:27;;;;;;;20.08;7.72;;;-1.50;99.90;;;-144.05;59.18;57031.50;5064506;28;20051;-89
2023/03/02 04:11:57;;;;;;;16.55;8.10;;;-1.60;99.90;;;-144.05;59.07;57035.75;5061140;28;20085;-86
2023/03/02 04:14:24;;;;;;;14.38;7.93;;;-1.60;99.90;;;-144.05;59.36;57016.63;5059390;28;20029;-89
2023/03/02 04:16:51;;;;;;;15.93;8.27;;;-1.60;99.90;;;-144.05;59.18;57031.50;5055601;28;20052;-86
2023/03/02 04:19:17;;;;;;;16.08;8.35;;;-1.60;99.90;;;-144.05;59.50;57050.63;5053644;28;20113;-87
2023/03/02 04:21:51;;;;;;;14.20;7.15;;;-1.60;99.90;;;-144.05;59.62;57048.50;5054009;28;20037;-86
2023/03/02 04:24:21;;;;;;;13.95;8.35;;;-1.60;99.90;;;-144.05;60.04;57042.13;5053822;28;20037;-86
2023/03/02 04:26:49;;;;;;;18.67;8.25;;;-1.60;99.90;;;-144.05;60.12;57012.38;5053631;28;20032;-87
2023/03/02 04:29:19;;;;;;;17.77;8.10;;;-1.50;99.90;;;-144.05;59.75;57059.09;5053715;28;20040;-85
2023/03/02 04:31:47;;;;;;;12.98;7.28;;;-1.40;99.90;;;-144.05;58.83;57063.34;5053588;28;20033;-86
2023/03/02 04:34:13;;;;;;;13.90;6.15;;;-1.20;99.90;;;-144.05;58.21;57027.25;5054395;28;20033;-86
2023/03/02 04:36:40;;;;;;;14.77;6.72;;;-1.00;99.90;;;-144.05;57.48;57020.88;5061500;28;20042;-86
2023/03/02 04:39:08;;;;;;;13.02;6.30;;;-0.90;99.90;;;-144.05;57.23;57012.38;5064281;28;20029;-87
2023/03/02 04:41:37;;;;;;;12.88;6.30;;;-1.00;99.90;;;-144.05;56.71;57025.13;5054309;28;20029;-86
2023/03/02 04:44:04;;;;;;;10.82;5.85;;;-0.80;99.90;;;-144.05;56.23;57018.75;5054814;28;20123;-87
2023/03/02 04:46:30;;;;;;;11.35;6.07;;;-0.70;99.90;;;-144.05;56.33;57003.88;5057583;28;20480;-86
2023/03/02 04:48:56;;;;;;;11.90;5.70;;;-0.70;99.90;;;-144.05;56.71;57035.75;5056581;28;20028;-85
2023/03/02 04:51:31;;;;;;;14.48;6.97;;;-0.80;99.90;;;-144.05;56.44;57035.75;5055007;28;20407;-85
2023/03/02 04:54:04;;;;;;;12.93;6.45;;;-0.80;99.90;;;-144.05;56.39;57035.75;5055044;28;20052;-84
2023/03/02 04:56:31;;;;;;;10.10;6.05;;;-0.70;99.90;;;-144.05;56.30;57042.13;5053163;28;20029;-85
2023/03/02 04:58:57;;;;;;;11.25;6.00;;;-0.80;99.90;;;-144.05;56.46;57018.75;5053470;28;20056;-86
2023/03/02 05:01:25;;;;;;;10.88;6.07;;;-0.90;99.90;;;-144.05;56.34;57033.63;5053551;28;20037;-87
2023/03/02 05:03:53;;;;;;;12.90;6.57;;;-1.00;99.90;;;-144.05;56.54;57018.75;5053768;28;20031;-86
2023/03/02 05:06:24;;;;;;;16.58;7.53;;;-0.90;99.90;;;-144.05;56.59;57071.84;5054459;28;20036;-86
2023/03/02 05:08:52;;;;;;;18.00;9.50;;;-1.00;99.90;;;-144.05;57.07;57035.75;5053553;28;20384;-86
2023/03/02 05:11:22;;;;;;;18.73;8.90;;;-1.00;99.90;;;-144.05;56.62;57061.22;5052699;28;20033;-83
2023/03/02 05:13:52;;;;;;;14.77;9.15;;;-1.00;99.90;;;-144.05;56.64;57012.38;5053707;28;20381;-86
2023/03/02 05:16:19;;;;;;;17.05;9.48;;;-1.00;99.90;;;-144.05;56.51;57018.75;5052723;28;20460;-86
2023/03/02 05:18:46;;;;;;;16.33;10.18;;;-1.10;99.90;;;-144.05;56.83;57018.75;5052154;28;20472;-85
2023/03/02 05:21:15;;;;;;;19.73;10.18;;;-1.10;99.90;;;-144.05;56.65;57046.38;5052735;28;20040;-86
2023/03/02 05:23:44;;;;;;;18.48;10.43;;;-1.10;99.90;;;-144.05;56.74;57050.63;5052443;28;20025;-86
2023/03/02 05:26:10;;;;;;;26.10;12.70;;;-1.00;99.90;;;-144.05;56.69;57044.25;5053156;28;20075;-85
2023/03/02 05:28:38;;;;;;;20.50;12.25;;;-1.10;99.90;;;-144.05;56.49;57042.13;5052692;28;20021;-85
2023/03/02 05:31:04;;;;;;;26.77;12.77;;;-1.10;99.90;;;-144.05;57.08;57020.88;5053059;28;20063;-86
2023/03/02 05:33:31;;;;;;;24.13;12.75;;;-1.20;99.90;;;-144.05;57.06;57048.50;5053595;28;20029;-86
2023/03/02 05:35:57;;;;;;;25.55;11.43;;;-1.10;99.90;;;-144.05;56.79;57003.88;5054688;28;20087;-88
2023/03/02 05:38:26;;;;;;;21.33;11.80;;;-1.20;99.90;;;-144.05;56.60;57052.75;5054750;28;20353;-87
2023/03/02 05:40:53;;;;;;;24.17;11.80;;;-1.20;99.90;;;-144.05;56.81;57044.25;5054496;28;20029;-87
2023/03/02 05:43:22;;;;;;;22.15;10.52;;;-1.10;99.90;;;-144.05;56.83;57054.88;5057699;28;20140;-89
2023/03/02 05:45:48;;;;;;;22.65;9.25;;;-1.00;99.90;;;-144.05;56.58;57040.00;5065921;28;20085;-84
2023/03/02 05:48:15;;;;;;;17.15;9.27;;;-1.00;99.90;;;-144.05;56.26;57031.50;5055174;28;20025;-84
2023/03/02 05:50:43;;;;;;;16.27;8.60;;;-1.00;99.90;;;-144.05;56.44;57042.13;5052305;28;20032;-87
2023/03/02 05:53:09;;;;;;;19.23;8.45;;;-1.00;99.90;;;-144.05;56.57;57035.75;5051825;28;20162;-86
2023/03/02 05:55:35;;;;;;;14.73;7.95;;;-0.90;99.90;;;-144.05;56.24;57014.50;5051866;28;20025;-85
2023/03/02 05:58:24;;;;;;;18.20;7.40;;;-0.90;99.90;;;-144.05;55.95;57027.25;5051084;28;20039;-86
2023/03/02 06:00:51;;;;;;;15.50;7.47;;;-0.90;99.90;;;-144.05;56.09;57025.13;5042812;28;20037;-85
2023/03/02 06:03:17;;;;;;;16.70;7.65;;;-0.80;99.90;;;-144.05;55.70;57016.63;5054868;28;20043;-87
2023/03/02 06:05:43;;;;;;;16.30;7.32;;;-0.70;99.90;;;-144.05;55.88;57012.38;5053443;28;20153;-86
2023/03/02 06:08:11;;;;;;;14.10;7.38;;;-0.80;99.90;;;-144.05;55.86;57027.25;5052530;28;20025;-84
2023/03/02 06:10:37;;;;;;;13.65;6.82;;;-0.90;99.90;;;-144.05;56.01;57023.00;5051843;28;20025;-83
2023/03/02 06:13:03;;;;;;;13.50;7.68;;;-0.80;99.90;;;-144.05;55.84;57031.50;5052281;28;20039;-86
2023/03/02 06:15:29;;;;;;;12.50;6.97;;;-0.80;99.90;;;-144.05;55.82;57048.50;5052305;28;20119;-86
2023/03/02 06:17:56;;;;;;;13.80;6.55;;;-0.90;99.90;;;-144.05;56.08;57035.75;5052931;28;20159;-84
2023/03/02 06:20:23;;;;;;;14.90;7.25;;;-0.90;99.90;;;-144.05;56.04;57033.63;5054485;28;20025;-86
2023/03/02 06:22:49;;;;;;;14.45;6.72;;;-0.90;99.90;;;-144.05;56.19;57035.75;5053621;28;20128;-87
2023/03/02 06:25:22;;;;;;;16.42;7.95;;;-0.90;99.90;;;-144.05;55.95;57052.75;5053792;28;20065;-86
2023/03/02 06:27:50;;;;;;;15.52;7.85;;;-1.00;99.90;;;-144.05;56.09;57014.50;5054790;28;20021;-86
2023/03/02 06:30:27;;;;;;;15.07;7.60;;;-1.00;99.90;;;-144.05;56.59;57006.00;5056048;28;20025;-88
2023/03/02 06:32:54;;;;;;;19.50;7.65;;;-1.10;99.90;;;-144.05;56.66;57035.75;5063028;28;20421;-88
2023/03/02 06:35:20;;;;;;;19.05;7.60;;;-1.10;99.90;;;-144.05;56.71;57031.50;5059597;28;20025;-89
2023/03/02 06:37:46;;;;;;;14.75;8.15;;;-1.10;99.90;;;-144.05;57.22;57052.75;5056661;28;20193;-86
2023/03/02 06:40:13;;;;;;;17.17;7.47;;;-1.10;99.90;;;-144.05;57.12;57006.00;5059398;28;20098;-86
2023/03/02 06:42:41;;;;;;;18.58;7.90;;;-1.00;99.90;;;-144.05;56.75;57042.13;5053963;28;20029;-86
2023/03/02 06:45:09;;;;;;;14.77;7.68;;;-0.90;99.90;;;-144.05;56.44;57035.75;5054053;28;20037;-87
2023/03/02 06:47:36;;;;;;;14.75;6.25;;;-0.90;99.90;;;-144.05;56.31;57010.25;5052597;28;20128;-86
2023/03/02 06:50:03;;;;;;;14.50;6.43;;;-0.70;99.90;;;-144.05;55.88;57012.38;5052228;28;20029;-86
2023/03/02 06:52:29;;;;;;;21.98;9.05;;;-0.60;99.90;;;-144.05;55.22;57018.75;5052796;28;20119;-87
2023/03/02 06:54:56;;;;;;;19.58;6.82;;;-0.50;99.90;;;-144.05;54.91;56999.63;5053163;28;20063;-88
2023/03/02 06:57:22;;;;;;;15.52;6.75;;;-0.30;99.90;;;-144.05;54.43;57040.00;5052685;28;20031;-86
2023/03/02 06:59:48;;;;;;;16.58;6.43;;;-0.20;99.90;;;-144.05;54.20;57010.25;5052422;28;20119;-85
2023/03/02 07:02:14;;;;;;;16.88;6.97;;;-0.10;99.90;;;-144.05;53.40;56997.50;5052639;28;20096;-85
2023/03/02 07:04:40;;;;;;;15.30;6.60;;;0.10;99.90;;;-144.05;53.08;57008.13;5054307;28;20174;-85
2023/03/02 07:07:06;;;;;;;15.63;7.13;;;0.10;99.90;;;-144.05;53.20;57010.25;5055528;28;20116;-86
2023/03/02 07:09:33;;;;;;;19.70;7.47;;;0.20;99.90;;;-144.05;52.79;57003.88;5056390;28;20051;-86
2023/03/02 07:11:59;;;;;;;19.45;5.95;;;0.40;99.90;;;-144.05;52.24;57020.88;5055251;28;20053;-86
2023/03/02 07:14:25;;;;;;;15.68;7.28;;;0.40;99.90;;;-144.05;52.07;57014.50;5054992;28;20027;-85
2023/03/02 07:16:51;;;;;;;14.30;6.47;;;0.50;99.90;;;-144.05;51.21;57010.25;5056585;28;20024;-87
2023/03/02 07:19:16;;;;;;;17.38;6.55;;;0.70;99.90;;;-144.05;50.82;56984.78;5057390;28;20025;-85
2023/03/02 07:21:42;;;;;;;14.15;6.90;;;0.90;99.90;;;-144.05;50.58;56986.91;5057792;28;20032;-87
2023/03/02 07:24:08;;;;;;;20.30;7.10;;;1.00;99.90;;;-144.05;49.84;56982.66;5059455;28;20033;-87
2023/03/02 07:26:34;;;;;;;15.88;7.28;;;1.10;99.90;;;-144.05;49.41;56999.63;5058096;28;20122;-87
2023/03/02 07:29:00;;;;;;;15.68;7.93;;;1.30;99.90;;;-144.05;49.25;56991.13;5058443;28;20033;-90
2023/03/02 07:31:27;;;;;;;15.25;7.80;;;1.40;99.90;;;-144.05;49.18;56986.91;5057009;28;20083;-87
2023/03/02 07:33:53;;;;;;;14.38;7.22;;;1.50;99.90;;;-144.05;48.23;56989.00;5056811;28;20025;-85
2023/03/02 07:36:19;;;;;;;19.27;7.13;;;1.90;99.90;;;-144.05;47.36;56946.53;5056293;28;20398;-87
2023/03/02 07:38:44;;;;;;;16.95;6.90;;;2.00;99.90;;;-144.05;47.65;56991.13;5056945;28;20075;-85
2023/03/02 07:41:11;;;;;;;15.35;7.72;;;1.90;99.90;;;-144.05;47.09;56946.53;5056882;28;20025;-84
2023/03/02 07:43:37;;;;;;;14.95;7.85;;;2.10;99.90;;;-144.05;46.81;56986.91;5057569;28;20370;-87
2023/03/02 07:46:05;;;;;;;18.17;8.20;;;2.30;99.90;;;-144.05;46.19;56997.50;5056189;28;20029;-86
2023/03/02 07:48:33;;;;;;;14.52;6.60;;;2.40;99.90;;;-144.05;46.17;56995.38;5056325;28;20021;-87
2023/03/02 07:51:02;;;;;;;15.32;6.90;;;2.50;99.90;;;-144.05;45.43;56980.53;5057429;28;20471;-87
2023/03/02 07:53:29;;;;;;;14.50;7.28;;;2.50;99.90;;;-144.05;45.83;56959.28;5064207;28;20071;-87
2023/03/02 07:55:55;;;;;;;17.20;8.52;;;2.70;99.90;;;-144.05;44.75;56963.53;5074606;28;20116;-84
2023/03/02 07:58:21;;;;;;;13.73;6.90;;;2.60;99.90;;;-144.05;45.21;56961.41;5055621;28;20464;-85
2023/03/02 08:00:48;;;;;;;18.23;7.80;;;2.60;99.90;;;-144.05;44.45;56952.91;5055558;28;20058;-86
2023/03/02 08:03:14;;;;;;;13.40;6.80;;;2.80;99.90;;;-144.05;43.92;56984.78;5056379;28;20064;-88
2023/03/02 08:05:40;;;;;;;14.48;6.40;;;2.90;99.90;;;-144.05;43.86;56965.66;5056487;28;20436;-85
2023/03/02 08:08:06;;;;;;;12.52;6.28;;;3.10;99.90;;;-144.05;43.57;56997.50;5056504;28;20526;-86
2023/03/02 08:10:36;;;;;;;15.40;6.40;;;3.10;99.90;;;-144.05;43.68;56950.78;5056158;28;20029;-87
2023/03/02 08:13:04;;;;;;;11.55;6.22;;;3.30;99.90;;;-144.05;43.91;56972.03;5056635;28;20061;-85
2023/03/02 08:15:29;;;;;;;11.70;6.32;;;3.20;99.90;;;-144.05;43.71;56972.03;5055608;28;20136;-86
2023/03/02 08:17:55;;;;;;;12.55;6.55;;;3.50;99.90;;;-144.05;42.86;56980.53;5055411;28;20076;-86
2023/03/02 08:20:21;;;;;;;15.52;6.70;;;3.70;99.90;;;-144.05;42.06;56955.03;5055449;28;20029;-87
2023/03/02 08:22:47;;;;;;;12.55;6.10;;;3.80;99.90;;;-144.05;42.48;56967.78;5055822;28;20515;-86
2023/03/02 08:25:13;;;;;;;14.63;6.70;;;3.70;99.90;;;-144.05;42.84;56974.16;5055729;28;20025;-86
2023/03/02 08:27:39;;;;;;;13.68;6.97;;;3.60;99.90;;;-144.05;42.25;56976.28;5055459;28;20033;-86
2023/03/02 08:30:08;;;;;;;12.52;6.50;;;3.70;99.90;;;-144.05;41.96;56978.41;5056114;28;20032;-85
2023/03/02 08:32:36;;;;;;;13.93;6.15;;;3.90;99.90;;;-144.05;41.61;56959.28;5055640;28;20029;-87
2023/03/02 08:35:04;;;;;;;15.35;6.50;;;4.00;99.90;;;-144.05;41.47;56938.03;5056196;28;20029;-84
2023/03/02 08:37:34;;;;;;;12.10;6.13;;;4.20;99.90;;;-144.05;41.21;56940.16;5056144;28;20025;-85
2023/03/02 08:40:01;;;;;;;14.15;6.40;;;4.30;99.90;;;-144.05;41.22;56957.16;5057294;28;20036;-87
2023/03/02 08:42:27;;;;;;;11.35;6.28;;;4.40;99.90;;;-144.05;40.27;56944.41;5056740;28;20058;-85
2023/03/02 08:44:53;;;;;;;16.48;6.50;;;4.50;99.90;;;-144.05;40.25;56942.28;5055947;28;20055;-86
2023/03/02 08:47:20;;;;;;;12.55;6.03;;;4.60;99.90;;;-144.05;39.92;56946.53;5056486;28;20094;-85
2023/03/02 08:49:53;;;;;;;11.23;6.32;;;4.80;99.90;;;-144.05;39.47;56921.06;5057212;28;20531;-85
2023/03/02 08:52:20;;;;;;;12.27;6.18;;;4.90;99.90;;;-144.05;39.52;56944.41;5056318;28;20048;-84
2023/03/02 08:54:46;;;;;;;10.95;6.20;;;5.10;99.90;;;-144.05;39.34;56929.53;5056515;28;20037;-85
2023/03/02 08:57:19;;;;;;;11.57;6.05;;;5.30;99.90;;;-144.05;39.06;56957.16;5055659;28;20182;-86
2023/03/02 09:00:13;;;;;;;9.55;5.28;;;5.40;99.90;;;-144.05;38.53;56901.94;5041769;28;20456;-85
2023/03/02 09:02:42;;;;;;;12.63;6.97;;;5.70;99.90;;;-144.05;38.12;56957.16;5060465;28;20032;-84
2023/03/02 09:05:11;;;;;;;12.68;6.63;;;5.60;99.90;;;-144.05;38.46;56916.81;5039129;28;20132;-85
2023/03/02 09:07:40;;;;;;;11.02;6.22;;;5.50;99.90;;;-144.05;37.95;56946.53;5038648;28;20453;-86
2023/03/02 09:10:07;;;;;;;10.50;5.93;;;5.60;99.90;;;-144.05;37.92;56929.53;5039398;28;20029;-85
2023/03/02 09:12:42;;;;;;;12.30;6.28;;;5.60;99.90;;;-144.05;37.36;56925.28;5056195;28;20043;-87
2023/03/02 09:15:11;;;;;;;16.10;6.78;;;5.70;99.60;;;-144.05;36.98;56923.19;5056589;28;20048;-85
2023/03/02 09:17:40;;;;;;;14.63;6.97;;;6.00;99.40;;;-144.05;36.47;56921.06;5055993;28;20020;-87
2023/03/02 09:20:08;;;;;;;11.57;5.88;;;6.20;98.70;;;-144.05;35.81;56912.56;5040311;28;20365;-85
2023/03/02 09:22:34;;;;;;;14.10;6.60;;;6.50;97.50;;;-144.05;35.64;56950.78;5053895;28;20040;-84
2023/03/02 09:25:05;;;;;;;10.93;5.63;;;6.60;97.10;;;-144.05;35.42;56929.53;5054630;28;20070;-84
2023/03/02 09:27:34;;;;;;;11.07;6.47;;;6.70;96.90;;;-144.05;35.31;56921.06;5054550;28;20025;-84
2023/03/02 09:30:00;;;;;;;12.82;6.30;;;7.10;96.40;;;-144.05;34.51;56895.56;5052554;28;20052;-83
2023/03/02 09:32:26;;;;;;;9.10;5.78;;;7.20;94.40;;;-144.05;34.71;56935.91;5051987;28;20029;-84
2023/03/02 09:34:52;;;;;;;10.07;5.35;;;7.10;93.70;;;-144.05;35.04;56914.69;5052697;28;20025;-85
2023/03/02 09:37:18;;;;;;;8.45;5.38;;;7.00;93.70;;;-144.05;35.53;56923.19;5053252;28;20033;-87
2023/03/02 09:39:44;;;;;;;12.55;5.72;;;7.20;93.90;;;-144.05;35.14;56914.69;5051974;28;20491;-87
2023/03/02 09:42:27;;;;;;;12.50;6.38;;;7.10;92.30;;;-144.05;35.38;56923.19;5054308;28;20473;-88
2023/03/02 09:45:19;;;;;;;12.30;5.78;;;7.20;93.00;;;-144.05;35.28;56914.69;5052651;28;20464;-86
2023/03/02 09:48:43;;;;;;;9.63;5.93;;;7.40;92.50;;;-144.05;34.69;56887.06;5053201;28;20424;-89
2023/03/02 09:51:29;;;;;;;10.75;5.70;;;7.60;91.80;;;-144.05;34.67;56940.16;5057199;28;20037;-81
2023/03/02 09:54:19;;;;;;;10.68;5.65;;;7.80;91.20;;;-144.05;33.80;56882.81;5057300;28;20035;-86
2023/03/02 09:56:57;;;;;;;10.07;5.22;;;7.90;89.80;;;-144.05;33.76;56923.19;5060267;28;20025;-83
2023/03/02 09:59:50;;;;;;;10.10;5.82;;;8.30;90.00;;;-144.05;33.08;56891.31;5058905;28;20047;-83
2023/03/02 10:02:49;;;;;;;10.20;5.25;;;8.60;89.30;;;-144.05;31.72;56893.44;5070543;28;20017;-81
2023/03/02 10:05:28;;;;;;;10.57;4.82;;;8.50;82.60;;;-144.05;32.50;56929.53;5053071;28;20029;-82
2023/03/02 10:07:54;;;;;;;12.57;5.18;;;8.20;82.60;;;-144.05;32.31;56918.94;5053775;28;20033;-85
2023/03/02 10:10:58;;;;;;;10.18;5.75;;;8.20;82.60;;;-144.05;32.33;56908.31;5054115;28;20393;-87
2023/03/02 10:13:48;;;;;;;9.02;5.38;;;8.40;82.30;;;-144.05;32.08;56910.44;5054262;28;20174;-88
2023/03/02 10:16:29;;;;;;;10.43;5.05;;;8.70;81.30;;;-144.05;31.79;56910.44;5054231;28;20033;-84